createdAt,value
2023-05-22T00:00:44.794Z,43.12
2023-05-22T00:01:44.797Z,43.12
2023-05-22T00:02:44.937Z,43.13
2023-05-22T00:03:44.825Z,43.15
2023-05-22T00:04:44.842Z,43.14
2023-05-22T00:05:44.837Z,43.13
2023-05-22T00:06:44.858Z,43.12
2023-05-22T00:07:44.871Z,43.12
2023-05-22T00:08:44.961Z,43.13
2023-05-22T00:09:44.908Z,43.16
2023-05-22T00:10:44.920Z,43.14
2023-05-22T00:11:44.921Z,43.12
2023-05-22T00:12:45.040Z,43.13
2023-05-22T00:13:44.959Z,43.15
2023-05-22T00:14:44.978Z,43.14
2023-05-22T00:15:44.990Z,43.14
2023-05-22T00:16:45.005Z,43.16
2023-05-22T00:17:45.057Z,43.15
2023-05-22T00:18:45.063Z,43.15
2023-05-22T00:19:45.569Z,43.15
2023-05-22T00:20:45.117Z,43.14
2023-05-22T00:21:45.057Z,43.15
2023-05-22T00:22:45.087Z,43.16
2023-05-22T00:23:45.138Z,43.16
2023-05-22T00:24:45.105Z,43.18
2023-05-22T00:25:45.127Z,43.16
2023-05-22T00:26:45.148Z,43.17
2023-05-22T00:27:45.238Z,43.18
2023-05-22T00:28:45.184Z,43.18
2023-05-22T00:29:45.187Z,43.18
2023-05-22T00:30:45.207Z,43.17
2023-05-22T00:31:45.228Z,43.17
2023-05-22T00:32:45.313Z,43.19
2023-05-22T00:33:45.260Z,43.20
2023-05-22T00:34:45.326Z,43.19
2023-05-22T00:35:45.264Z,43.15
2023-05-22T00:36:45.273Z,43.18
2023-05-22T00:37:45.346Z,43.17
2023-05-22T00:38:45.305Z,43.22
2023-05-22T00:39:45.328Z,43.19
2023-05-22T00:40:45.332Z,43.18
2023-05-22T00:41:45.349Z,43.20
2023-05-22T00:42:45.407Z,43.18
2023-05-22T00:43:45.356Z,43.16
2023-05-22T00:44:45.365Z,43.15
2023-05-22T00:45:45.366Z,43.18
2023-05-22T00:46:45.438Z,43.17
2023-05-22T00:47:45.602Z,43.16
2023-05-22T00:48:45.406Z,43.15
2023-05-22T00:49:45.408Z,43.19
2023-05-22T00:50:45.419Z,43.16
2023-05-22T00:51:45.420Z,43.18
2023-05-22T00:52:45.431Z,43.15
2023-05-22T00:53:45.438Z,43.19
2023-05-22T00:54:45.442Z,43.16
2023-05-22T00:55:45.451Z,43.16
2023-05-22T00:56:45.461Z,43.16
2023-05-22T00:57:45.471Z,43.15
2023-05-22T00:58:45.466Z,43.17
2023-05-22T00:59:45.471Z,43.15
2023-05-22T01:00:45.541Z,43.17
2023-05-22T01:01:45.530Z,43.17
2023-05-22T01:02:45.679Z,43.15
2023-05-22T01:03:45.684Z,43.16
2023-05-22T01:04:45.494Z,43.18
2023-05-22T01:05:45.494Z,43.17
2023-05-22T01:06:45.513Z,43.17
2023-05-22T01:07:45.574Z,43.16
2023-05-22T01:08:45.521Z,43.15
2023-05-22T01:09:45.532Z,43.16
2023-05-22T01:10:45.554Z,43.16
2023-05-22T01:11:45.565Z,43.14
2023-05-22T01:12:45.571Z,43.16
2023-05-22T01:13:45.586Z,43.16
2023-05-22T01:14:45.589Z,43.17
2023-05-22T01:15:45.583Z,43.14
2023-05-22T01:16:45.661Z,43.16
2023-05-22T01:17:45.626Z,43.15
2023-05-22T01:18:45.635Z,43.15
2023-05-22T01:19:45.589Z,43.15
2023-05-22T01:20:47.727Z,43.17
2023-05-22T01:21:45.572Z,43.16
2023-05-22T01:22:45.573Z,43.17
2023-05-22T01:23:45.564Z,43.15
2023-05-22T01:24:45.561Z,43.13
2023-05-22T01:25:45.606Z,43.15
2023-05-22T01:26:45.555Z,43.15
2023-05-22T01:27:45.509Z,43.16
2023-05-22T01:28:45.555Z,43.14
2023-05-22T01:29:45.472Z,43.13
2023-05-22T01:30:45.468Z,43.16
2023-05-22T01:31:45.452Z,43.16
2023-05-22T01:32:45.667Z,43.15
2023-05-22T01:33:45.500Z,43.17
2023-05-22T01:34:45.412Z,43.18
2023-05-22T01:35:45.394Z,43.16
2023-05-22T01:36:45.378Z,43.16
2023-05-22T01:37:45.365Z,43.19
2023-05-22T01:38:45.345Z,43.18
2023-05-22T01:39:45.327Z,43.16
2023-05-22T01:40:45.318Z,43.19
2023-05-22T01:41:45.304Z,43.18
2023-05-22T01:42:45.333Z,43.17
2023-05-22T01:43:45.275Z,43.18
2023-05-22T01:44:45.254Z,43.16
2023-05-22T01:45:45.271Z,43.20
2023-05-22T01:46:45.311Z,43.21
2023-05-22T01:47:45.316Z,43.18
2023-05-22T01:48:45.198Z,43.20
2023-05-22T01:49:45.197Z,43.19
2023-05-22T01:50:46.095Z,43.18
2023-05-22T01:51:45.169Z,43.20
2023-05-22T01:52:45.147Z,43.20
2023-05-22T01:53:45.175Z,43.20
2023-05-22T01:54:45.122Z,43.20
2023-05-22T01:55:45.114Z,43.22
2023-05-22T01:56:45.103Z,43.23
2023-05-22T01:57:45.093Z,43.21
2023-05-22T01:58:45.083Z,43.22
2023-05-22T01:59:45.101Z,43.23
2023-05-22T02:00:45.065Z,43.23
2023-05-22T02:01:45.104Z,43.25
2023-05-22T02:02:45.656Z,43.25
2023-05-22T02:03:45.067Z,43.24
2023-05-22T02:04:45.057Z,43.26
2023-05-22T02:05:45.012Z,43.29
2023-05-22T02:06:44.985Z,43.28
2023-05-22T02:07:44.986Z,43.29
2023-05-22T02:08:44.968Z,43.29
2023-05-22T02:09:44.955Z,43.27
2023-05-22T02:10:44.946Z,43.30
2023-05-22T02:11:44.930Z,43.31
2023-05-22T02:12:45.016Z,43.27
2023-05-22T02:13:44.906Z,43.28
2023-05-22T02:14:44.897Z,43.30
2023-05-22T02:15:44.960Z,43.30
2023-05-22T02:16:44.875Z,43.29
2023-05-22T02:17:44.905Z,43.30
2023-05-22T02:18:44.944Z,43.31
2023-05-22T02:19:44.849Z,43.31
2023-05-22T02:20:44.843Z,43.31
2023-05-22T02:21:44.835Z,43.31
2023-05-22T02:22:44.907Z,43.34
2023-05-22T02:23:44.817Z,43.31
2023-05-22T02:24:44.848Z,43.32
2023-05-22T02:25:44.804Z,43.32
2023-05-22T02:26:44.793Z,43.32
2023-05-22T02:27:44.787Z,43.32
2023-05-22T02:28:44.776Z,43.32
2023-05-22T02:29:44.766Z,43.33
2023-05-22T02:30:44.759Z,43.35
2023-05-22T02:31:44.929Z,43.35
2023-05-22T02:32:44.785Z,43.36
2023-05-22T02:33:44.755Z,43.32
2023-05-22T02:34:44.728Z,43.34
2023-05-22T02:35:44.852Z,43.35
2023-05-22T02:36:44.708Z,43.38
2023-05-22T02:37:44.703Z,43.35
2023-05-22T02:38:44.694Z,43.36
2023-05-22T02:39:44.690Z,43.38
2023-05-22T02:40:44.677Z,43.38
2023-05-22T02:41:44.670Z,43.38
2023-05-22T02:42:44.666Z,43.37
2023-05-22T02:43:44.674Z,43.38
2023-05-22T02:44:44.632Z,43.37
2023-05-22T02:45:44.647Z,43.39
2023-05-22T02:46:44.678Z,43.39
2023-05-22T02:47:45.132Z,43.41
2023-05-22T02:48:44.615Z,43.39
2023-05-22T02:49:44.599Z,43.41
2023-05-22T02:50:44.606Z,43.42
2023-05-22T02:51:44.588Z,43.44
2023-05-22T02:52:44.605Z,43.43
2023-05-22T02:53:44.576Z,43.44
2023-05-22T02:54:44.576Z,43.45
2023-05-22T02:55:44.566Z,43.44
2023-05-22T02:56:44.563Z,43.46
2023-05-22T02:57:44.546Z,43.47
2023-05-22T02:58:44.554Z,43.45
2023-05-22T02:59:44.529Z,43.47
2023-05-22T03:00:44.511Z,43.46
2023-05-22T03:01:44.602Z,43.47
2023-05-22T03:02:44.633Z,43.48
2023-05-22T03:03:44.629Z,43.49
2023-05-22T03:04:44.444Z,43.52
2023-05-22T03:05:44.450Z,43.51
2023-05-22T03:06:51.961Z,43.53
2023-05-22T03:07:46.015Z,43.54
2023-05-22T03:08:44.473Z,43.52
2023-05-22T03:09:44.469Z,43.54
2023-05-22T03:10:44.445Z,43.54
2023-05-22T03:11:44.439Z,43.54
2023-05-22T03:12:44.419Z,43.54
2023-05-22T03:13:44.417Z,43.52
2023-05-22T03:14:44.393Z,43.52
2023-05-22T03:15:44.399Z,43.55
2023-05-22T03:16:44.556Z,43.55
2023-05-22T03:17:44.389Z,43.57
2023-05-22T03:18:44.430Z,43.56
2023-05-22T03:19:44.337Z,43.56
2023-05-22T03:20:44.319Z,43.56
2023-05-22T03:21:44.378Z,43.58
2023-05-22T03:22:44.310Z,43.57
2023-05-22T03:23:45.135Z,43.55
2023-05-22T03:24:44.293Z,43.57
2023-05-22T03:25:44.273Z,43.57
2023-05-22T03:26:44.256Z,43.58
2023-05-22T03:27:44.247Z,43.57
2023-05-22T03:28:44.266Z,43.58
2023-05-22T03:29:44.217Z,43.59
2023-05-22T03:30:44.232Z,43.59
2023-05-22T03:31:44.190Z,43.57
2023-05-22T03:32:44.244Z,43.61
2023-05-22T03:33:44.235Z,43.65
2023-05-22T03:34:44.144Z,43.61
2023-05-22T03:35:44.145Z,43.65
2023-05-22T03:36:44.144Z,43.64
2023-05-22T03:37:44.132Z,43.67
2023-05-22T03:38:44.129Z,43.68
2023-05-22T03:39:44.115Z,43.68
2023-05-22T03:40:44.114Z,43.71
2023-05-22T03:41:44.096Z,43.70
2023-05-22T03:42:44.093Z,43.72
2023-05-22T03:43:45.160Z,43.69
2023-05-22T03:44:44.070Z,43.71
2023-05-22T03:45:44.134Z,43.75
2023-05-22T03:46:44.055Z,43.74
2023-05-22T03:47:44.061Z,43.73
2023-05-22T03:48:44.036Z,43.74
2023-05-22T03:49:44.041Z,43.72
2023-05-22T03:50:44.010Z,43.72
2023-05-22T03:51:44.010Z,43.71
2023-05-22T03:52:44.011Z,43.69
2023-05-22T03:53:43.987Z,43.72
2023-05-22T03:54:43.971Z,43.69
2023-05-22T03:55:43.970Z,43.70
2023-05-22T03:56:43.965Z,43.68
2023-05-22T03:57:43.949Z,43.70
2023-05-22T03:58:43.941Z,43.65
2023-05-22T03:59:43.933Z,43.66
2023-05-22T04:00:43.930Z,43.64
2023-05-22T04:01:43.945Z,43.64
2023-05-22T04:02:44.005Z,43.67
2023-05-22T04:03:43.987Z,43.68
2023-05-22T04:04:43.924Z,43.65
2023-05-22T04:05:43.919Z,43.60
2023-05-22T04:06:43.954Z,43.69
2023-05-22T04:07:43.968Z,43.63
2023-05-22T04:08:43.989Z,43.62
2023-05-22T04:09:44.017Z,43.67
2023-05-22T04:10:44.039Z,43.69
2023-05-22T04:11:44.050Z,43.72
2023-05-22T04:12:44.074Z,43.74
2023-05-22T04:13:44.100Z,43.74
2023-05-22T04:14:44.127Z,43.75
2023-05-22T04:15:44.172Z,43.75
2023-05-22T04:16:44.163Z,43.73
2023-05-22T04:17:44.235Z,43.74
2023-05-22T04:18:44.253Z,43.74
2023-05-22T04:19:44.207Z,43.74
2023-05-22T04:20:44.225Z,43.75
2023-05-22T04:21:44.257Z,43.74
2023-05-22T04:22:44.271Z,43.70
2023-05-22T04:23:44.277Z,43.69
2023-05-22T04:24:44.295Z,43.64
2023-05-22T04:25:44.311Z,43.62
2023-05-22T04:26:44.321Z,43.64
2023-05-22T04:27:44.351Z,43.58
2023-05-22T04:28:44.371Z,43.58
2023-05-22T04:29:44.374Z,43.58
2023-05-22T04:30:44.395Z,43.57
2023-05-22T04:31:44.466Z,43.54
2023-05-22T04:32:44.502Z,43.57
2023-05-22T04:33:44.468Z,43.55
2023-05-22T04:34:44.486Z,43.56
2023-05-22T04:35:44.515Z,43.55
2023-05-22T04:36:44.526Z,43.54
2023-05-22T04:37:44.567Z,43.54
2023-05-22T04:38:44.576Z,43.53
2023-05-22T04:39:44.596Z,43.53
2023-05-22T04:40:44.618Z,43.53
2023-05-22T04:41:44.649Z,43.55
2023-05-22T04:42:44.730Z,43.52
2023-05-22T04:43:44.696Z,43.52
2023-05-22T04:44:44.704Z,43.53
2023-05-22T04:45:44.722Z,43.52
2023-05-22T04:46:44.808Z,43.50
2023-05-22T04:47:44.829Z,43.52
2023-05-22T04:48:44.786Z,43.51
2023-05-22T04:49:44.802Z,43.51
2023-05-22T04:50:44.818Z,43.49
2023-05-22T04:51:44.832Z,43.51
2023-05-22T04:52:44.854Z,43.51
2023-05-22T04:53:44.856Z,43.50
2023-05-22T04:54:44.882Z,43.53
2023-05-22T04:55:44.899Z,43.50
2023-05-22T04:56:44.913Z,43.53
2023-05-22T04:57:44.933Z,43.53
2023-05-22T04:58:44.964Z,43.53
2023-05-22T04:59:45.021Z,43.56
2023-05-22T05:00:45.029Z,43.55
2023-05-22T05:01:45.073Z,43.54
2023-05-22T05:02:45.104Z,43.53
2023-05-22T05:03:45.105Z,43.54
2023-05-22T05:04:45.082Z,43.53
2023-05-22T05:05:45.108Z,43.54
2023-05-22T05:06:45.118Z,43.56
2023-05-22T05:07:45.905Z,43.53
2023-05-22T05:08:45.345Z,43.55
2023-05-22T05:09:45.167Z,43.53
2023-05-22T05:10:45.182Z,43.55
2023-05-22T05:11:45.214Z,43.52
2023-05-22T05:12:45.248Z,43.53
2023-05-22T05:13:45.242Z,43.57
2023-05-22T05:14:45.273Z,43.53
2023-05-22T05:15:45.283Z,43.51
2023-05-22T05:16:45.317Z,43.51
2023-05-22T05:17:45.382Z,43.50
2023-05-22T05:18:45.365Z,43.51
2023-05-22T05:19:45.378Z,43.51
2023-05-22T05:20:45.395Z,43.50
2023-05-22T05:21:45.419Z,43.51
2023-05-22T05:22:45.472Z,43.46
2023-05-22T05:23:45.446Z,43.44
2023-05-22T05:24:45.528Z,43.47
2023-05-22T05:25:45.507Z,43.49
2023-05-22T05:26:45.493Z,43.48
2023-05-22T05:27:45.521Z,43.44
2023-05-22T05:28:45.541Z,43.46
2023-05-22T05:29:45.526Z,43.42
2023-05-22T05:30:45.546Z,43.39
2023-05-22T05:31:45.612Z,43.40
2023-05-22T05:32:45.617Z,43.61
2023-05-22T05:33:45.584Z,44.12
2023-05-22T05:34:45.602Z,44.36
2023-05-22T05:35:45.579Z,44.72
2023-05-22T05:36:45.561Z,44.98
2023-05-22T05:37:45.543Z,45.22
2023-05-22T05:38:45.530Z,45.45
2023-05-22T05:39:45.520Z,45.54
2023-05-22T05:40:45.595Z,45.85
2023-05-22T05:41:45.493Z,46.03
2023-05-22T05:42:45.477Z,46.18
2023-05-22T05:43:45.473Z,46.52
2023-05-22T05:44:45.454Z,46.68
2023-05-22T05:45:45.483Z,46.80
2023-05-22T05:46:45.478Z,46.97
2023-05-22T05:47:45.566Z,47.06
2023-05-22T05:48:45.499Z,47.23
2023-05-22T05:49:45.556Z,47.44
2023-05-22T05:50:45.591Z,47.55
2023-05-22T05:51:45.591Z,47.80
2023-05-22T05:52:45.658Z,47.82
2023-05-22T05:53:45.652Z,48.03
2023-05-22T05:54:46.178Z,48.06
2023-05-22T05:55:45.757Z,48.30
2023-05-22T05:56:48.806Z,48.40
2023-05-22T05:57:45.769Z,48.50
2023-05-22T05:58:45.680Z,48.67
2023-05-22T05:59:45.666Z,48.81
2023-05-22T06:00:45.632Z,48.97
2023-05-22T06:01:46.771Z,49.10
2023-05-22T06:02:50.750Z,49.40
2023-05-22T06:03:45.805Z,49.47
2023-05-22T06:04:45.585Z,49.58
2023-05-22T06:05:45.704Z,49.72
2023-05-22T06:06:45.593Z,49.91
2023-05-22T06:07:45.690Z,50.00
2023-05-22T06:08:45.616Z,50.06
2023-05-22T06:09:46.575Z,50.31
2023-05-22T06:10:45.538Z,50.51
2023-05-22T06:11:45.522Z,50.73
2023-05-22T06:12:45.509Z,50.64
2023-05-22T06:13:45.463Z,50.84
2023-05-22T06:14:45.422Z,50.97
2023-05-22T06:15:45.468Z,51.15
2023-05-22T06:16:45.388Z,51.26
2023-05-22T06:17:45.359Z,51.45
2023-05-22T06:18:45.398Z,51.49
2023-05-22T06:19:45.265Z,51.84
2023-05-22T06:20:45.231Z,52.05
2023-05-22T06:21:45.199Z,52.19
2023-05-22T06:22:45.165Z,52.50
2023-05-22T06:23:45.130Z,52.22
2023-05-22T06:24:45.103Z,52.11
2023-05-22T06:25:45.083Z,51.99
2023-05-22T06:26:45.067Z,52.03
2023-05-22T06:27:45.020Z,51.96
2023-05-22T06:28:45.005Z,51.88
2023-05-22T06:29:44.958Z,51.97
2023-05-22T06:30:45.169Z,51.96
2023-05-22T06:31:45.051Z,51.89
2023-05-22T06:32:45.159Z,51.83
2023-05-22T06:33:45.114Z,51.88
2023-05-22T06:34:45.072Z,51.80
2023-05-22T06:35:45.091Z,51.75
2023-05-22T06:36:45.117Z,51.65
2023-05-22T06:37:45.135Z,51.64
2023-05-22T06:38:45.161Z,51.61
2023-05-22T06:39:45.183Z,51.62
2023-05-22T06:40:45.512Z,51.55
2023-05-22T06:41:45.233Z,51.57
2023-05-22T06:42:45.260Z,51.52
2023-05-22T06:43:45.277Z,51.50
2023-05-22T06:44:45.338Z,51.38
2023-05-22T06:45:45.396Z,51.41
2023-05-22T06:46:45.357Z,51.37
2023-05-22T06:47:45.420Z,51.28
2023-05-22T06:48:45.411Z,51.18
2023-05-22T06:49:45.445Z,51.16
2023-05-22T06:50:45.468Z,51.08
2023-05-22T06:51:45.493Z,51.06
2023-05-22T06:52:45.529Z,51.01
2023-05-22T06:53:45.562Z,51.02
2023-05-22T06:54:45.602Z,50.98
2023-05-22T06:55:45.631Z,50.93
2023-05-22T06:56:45.656Z,50.91
2023-05-22T06:57:45.688Z,50.94
2023-05-22T06:58:45.708Z,50.88
2023-05-22T06:59:45.731Z,50.89
2023-05-22T07:00:45.755Z,50.88
2023-05-22T07:01:45.823Z,50.84
2023-05-22T07:02:45.843Z,50.84
2023-05-22T07:03:45.868Z,50.81
2023-05-22T07:04:45.892Z,50.75
2023-05-22T07:05:45.926Z,50.77
2023-05-22T07:06:45.966Z,50.74
2023-05-22T07:07:45.991Z,50.76
2023-05-22T07:08:45.946Z,50.74
2023-05-22T07:09:45.919Z,50.72
2023-05-22T07:10:46.644Z,50.70
2023-05-22T07:11:45.859Z,50.69
2023-05-22T07:12:45.834Z,50.68
2023-05-22T07:13:45.807Z,50.63
2023-05-22T07:14:45.783Z,50.67
2023-05-22T07:15:46.744Z,50.62
2023-05-22T07:16:45.761Z,50.61
2023-05-22T07:17:45.784Z,50.57
2023-05-22T07:18:45.774Z,50.50
2023-05-22T07:19:45.786Z,50.54
2023-05-22T07:20:45.822Z,50.43
2023-05-22T07:21:45.875Z,50.46
2023-05-22T07:22:45.898Z,50.42
2023-05-22T07:23:45.923Z,50.40
2023-05-22T07:24:45.915Z,50.41
2023-05-22T07:25:45.939Z,50.37
2023-05-22T07:26:45.993Z,50.32
2023-05-22T07:27:47.047Z,50.27
2023-05-22T07:28:46.655Z,50.25
2023-05-22T07:29:46.086Z,50.26
2023-05-22T07:30:46.128Z,50.23
2023-05-22T07:31:46.202Z,50.23
2023-05-22T07:32:46.187Z,50.21
2023-05-22T07:33:46.221Z,50.19
2023-05-22T07:34:46.246Z,50.15
2023-05-22T07:35:46.306Z,50.13
2023-05-22T07:36:46.317Z,50.10
2023-05-22T07:37:46.345Z,50.09
2023-05-22T07:38:46.374Z,50.10
2023-05-22T07:39:46.413Z,50.07
2023-05-22T07:40:46.420Z,50.05
2023-05-22T07:41:46.472Z,50.04
2023-05-22T07:42:46.512Z,50.06
2023-05-22T07:43:46.543Z,50.00
2023-05-22T07:44:46.566Z,49.98
2023-05-22T07:45:46.618Z,49.97
2023-05-22T07:46:46.655Z,50.00
2023-05-22T07:47:46.762Z,49.99
2023-05-22T07:48:46.737Z,49.98
2023-05-22T07:49:46.749Z,49.98
2023-05-22T07:50:46.807Z,49.97
2023-05-22T07:51:46.861Z,49.92
2023-05-22T07:52:46.867Z,49.92
2023-05-22T07:53:46.902Z,49.91
2023-05-22T07:54:46.914Z,49.86
2023-05-22T07:55:46.975Z,49.93
2023-05-22T07:56:46.984Z,49.90
2023-05-22T07:57:47.065Z,49.91
2023-05-22T07:58:47.031Z,49.87
2023-05-22T07:59:47.077Z,49.85
2023-05-22T08:00:47.085Z,49.88
2023-05-22T08:01:47.099Z,49.85
2023-05-22T08:02:47.187Z,49.87
2023-05-22T08:03:47.301Z,49.86
2023-05-22T08:04:47.165Z,49.88
2023-05-22T08:05:47.229Z,49.84
2023-05-22T08:06:47.203Z,49.81
2023-05-22T08:07:47.143Z,49.85
2023-05-22T08:08:47.152Z,49.81
2023-05-22T08:09:47.156Z,49.76
2023-05-22T08:11:02.441Z,49.76
2023-05-22T08:11:48.145Z,49.79
2023-05-22T08:12:47.128Z,49.78
2023-05-22T08:13:47.095Z,49.76
2023-05-22T08:14:47.070Z,49.73
2023-05-22T08:15:47.046Z,49.73
2023-05-22T08:16:47.087Z,49.79
2023-05-22T08:17:47.049Z,49.94
2023-05-22T08:18:47.283Z,49.81
2023-05-22T08:19:47.057Z,49.81
2023-05-22T08:20:46.958Z,49.74
2023-05-22T08:21:46.945Z,49.72
2023-05-22T08:22:46.909Z,49.68
2023-05-22T08:23:46.899Z,49.68
2023-05-22T08:24:46.860Z,49.62
2023-05-22T08:25:46.833Z,49.64
2023-05-22T08:26:46.815Z,49.65
2023-05-22T08:27:46.825Z,49.59
2023-05-22T08:28:46.795Z,49.64
2023-05-22T08:29:46.790Z,49.62
2023-05-22T08:30:46.781Z,49.67
2023-05-22T08:31:46.871Z,49.69
2023-05-22T08:32:46.776Z,49.65
2023-05-22T08:33:46.774Z,49.62
2023-05-22T08:34:46.741Z,49.64
2023-05-22T08:35:46.712Z,49.59
2023-05-22T08:36:46.788Z,49.57
2023-05-22T08:37:46.687Z,49.58
2023-05-22T08:38:46.663Z,49.56
2023-05-22T08:39:46.667Z,49.54
2023-05-22T08:40:46.820Z,49.51
2023-05-22T08:41:46.635Z,49.51
2023-05-22T08:42:46.633Z,49.51
2023-05-22T08:43:46.646Z,49.49
2023-05-22T08:44:46.639Z,49.48
2023-05-22T08:45:46.654Z,49.48
2023-05-22T08:46:46.697Z,49.47
2023-05-22T08:47:46.705Z,49.45
2023-05-22T08:48:46.673Z,49.43
2023-05-22T08:49:46.660Z,49.42
2023-05-22T08:50:46.662Z,49.41
2023-05-22T08:51:46.674Z,49.38
2023-05-22T08:52:46.679Z,49.37
2023-05-22T08:53:46.686Z,49.38
2023-05-22T08:54:46.666Z,49.34
2023-05-22T08:55:46.689Z,49.35
2023-05-22T08:56:56.322Z,49.34
2023-05-22T08:57:47.650Z,49.33
2023-05-22T08:58:46.635Z,49.30
2023-05-22T08:59:46.615Z,49.30
2023-05-22T09:00:46.641Z,49.33
2023-05-22T09:01:46.609Z,49.28
2023-05-22T09:02:46.608Z,49.26
2023-05-22T09:03:46.614Z,49.28
2023-05-22T09:04:46.504Z,49.27
2023-05-22T09:05:46.468Z,49.27
2023-05-22T09:06:46.431Z,49.28
2023-05-22T09:08:46.397Z,49.32
2023-05-22T09:09:46.363Z,49.40
2023-05-22T09:10:46.347Z,49.32
2023-05-22T09:11:46.328Z,49.33
2023-05-22T09:12:46.306Z,49.32
2023-05-22T09:13:46.289Z,49.34
2023-05-22T09:14:46.261Z,49.34
2023-05-22T09:15:46.249Z,49.34
2023-05-22T09:16:46.276Z,49.37
2023-05-22T09:17:46.236Z,49.35
2023-05-22T09:18:46.243Z,49.41
2023-05-22T09:19:46.294Z,49.39
2023-05-22T09:20:46.145Z,49.35
2023-05-22T09:21:46.326Z,49.34
2023-05-22T09:22:46.154Z,49.34
2023-05-22T09:23:46.157Z,49.35
2023-05-22T09:24:46.195Z,49.32
2023-05-22T09:25:46.138Z,49.32
2023-05-22T09:26:46.133Z,49.34
2023-05-22T09:27:46.117Z,49.31
2023-05-22T09:28:46.129Z,49.28
2023-05-22T09:29:46.102Z,49.28
2023-05-22T09:30:46.160Z,49.23
2023-05-22T09:31:46.261Z,49.25
2023-05-22T09:32:46.106Z,49.24
2023-05-22T09:33:46.063Z,49.27
2023-05-22T09:34:46.068Z,49.21
2023-05-22T09:35:46.063Z,49.20
2023-05-22T09:36:46.047Z,49.20
2023-05-22T09:37:46.039Z,49.23
2023-05-22T09:38:46.065Z,49.23
2023-05-22T09:39:46.082Z,49.22
2023-05-22T09:40:46.094Z,49.19
2023-05-22T09:41:46.127Z,49.23
2023-05-22T09:42:46.142Z,49.21
2023-05-22T09:43:46.139Z,49.19
2023-05-22T09:44:46.145Z,49.19
2023-05-22T09:45:46.151Z,49.17
2023-05-22T09:46:46.266Z,49.19
2023-05-22T09:47:46.203Z,49.21
2023-05-22T09:48:46.185Z,49.18
2023-05-22T09:49:46.211Z,49.21
2023-05-22T09:50:46.228Z,49.15
2023-05-22T09:51:46.227Z,49.17
2023-05-22T09:52:53.725Z,49.20
2023-05-22T09:53:46.234Z,49.17
2023-05-22T09:54:46.224Z,49.17
2023-05-22T09:55:46.205Z,49.16
2023-05-22T09:56:46.184Z,49.16
2023-05-22T09:57:46.172Z,49.13
2023-05-22T09:58:46.154Z,49.11
2023-05-22T09:59:46.134Z,49.11
2023-05-22T10:00:46.119Z,49.11
2023-05-22T10:01:46.143Z,49.11
2023-05-22T10:02:46.127Z,49.05
2023-05-22T10:03:48.655Z,49.06
2023-05-22T10:04:46.104Z,49.08
2023-05-22T10:05:46.033Z,49.07
2023-05-22T10:06:46.032Z,49.08
2023-05-22T10:07:46.015Z,49.03
2023-05-22T10:08:45.985Z,49.02
2023-05-22T10:09:45.965Z,49.02
2023-05-22T10:10:45.943Z,49.00
2023-05-22T10:11:45.926Z,49.01
2023-05-22T10:12:45.989Z,49.01
2023-05-22T10:13:45.880Z,49.00
2023-05-22T10:14:45.875Z,48.97
2023-05-22T10:15:45.961Z,48.98
2023-05-22T10:16:45.819Z,48.99
2023-05-22T10:17:45.819Z,48.96
2023-05-22T10:18:45.788Z,48.94
2023-05-22T10:19:46.885Z,48.97
2023-05-22T10:20:45.711Z,48.95
2023-05-22T10:21:45.691Z,48.96
2023-05-22T10:22:45.664Z,48.94
2023-05-22T10:23:45.641Z,48.92
2023-05-22T10:24:45.606Z,48.92
2023-05-22T10:25:45.612Z,48.91
2023-05-22T10:26:45.553Z,48.90
2023-05-22T10:27:45.545Z,48.87
2023-05-22T10:28:45.689Z,48.86
2023-05-22T10:29:45.506Z,48.86
2023-05-22T10:30:45.472Z,48.85
2023-05-22T10:31:45.444Z,48.84
2023-05-22T10:32:45.418Z,48.84
2023-05-22T10:33:45.403Z,48.80
2023-05-22T10:34:45.358Z,48.82
2023-05-22T10:35:45.339Z,48.81
2023-05-22T10:36:47.092Z,48.81
2023-05-22T10:37:45.281Z,48.79
2023-05-22T10:38:45.260Z,48.79
2023-05-22T10:39:45.224Z,48.78
2023-05-22T10:40:45.410Z,48.76
2023-05-22T10:41:45.177Z,48.73
2023-05-22T10:42:45.173Z,48.74
2023-05-22T10:43:45.152Z,48.75
2023-05-22T10:44:45.205Z,48.70
2023-05-22T10:45:45.642Z,48.71
2023-05-22T10:46:45.070Z,48.70
2023-05-22T10:47:45.073Z,48.68
2023-05-22T10:48:45.040Z,48.66
2023-05-22T10:49:45.057Z,48.65
2023-05-22T10:50:44.997Z,48.66
2023-05-22T10:51:44.977Z,48.67
2023-05-22T10:52:44.956Z,48.62
2023-05-22T10:53:44.930Z,48.61
2023-05-22T10:54:44.921Z,48.59
2023-05-22T10:55:44.905Z,48.62
2023-05-22T10:56:44.870Z,48.57
2023-05-22T10:57:44.848Z,48.55
2023-05-22T10:58:44.835Z,48.53
2023-05-22T10:59:44.836Z,48.52
2023-05-22T11:00:44.887Z,48.52
2023-05-22T11:01:44.793Z,48.50
2023-05-22T11:02:44.904Z,48.49
2023-05-22T11:03:44.788Z,48.47
2023-05-22T11:04:44.778Z,48.48
2023-05-22T11:05:44.695Z,48.44
2023-05-22T11:06:45.236Z,48.45
2023-05-22T11:07:44.653Z,48.44
2023-05-22T11:08:44.628Z,48.41
2023-05-22T11:09:44.606Z,48.40
2023-05-22T11:10:44.586Z,48.40
2023-05-22T11:11:44.569Z,48.40
2023-05-22T11:12:44.567Z,48.37
2023-05-22T11:13:44.526Z,48.37
2023-05-22T11:14:44.517Z,48.38
2023-05-22T11:15:44.500Z,48.33
2023-05-22T11:16:44.649Z,48.28
2023-05-22T11:17:44.531Z,48.31
2023-05-22T11:18:45.861Z,48.29
2023-05-22T11:19:44.732Z,48.32
2023-05-22T11:20:44.693Z,48.29
2023-05-22T11:21:44.737Z,48.26
2023-05-22T11:22:44.733Z,48.26
2023-05-22T11:23:44.761Z,48.27
2023-05-22T11:24:44.789Z,48.25
2023-05-22T11:25:44.794Z,48.23
2023-05-22T11:26:44.831Z,48.23
2023-05-22T11:27:44.850Z,48.21
2023-05-22T11:28:44.869Z,48.20
2023-05-22T11:29:44.889Z,48.20
2023-05-22T11:30:44.929Z,48.19
2023-05-22T11:31:44.963Z,48.16
2023-05-22T11:32:45.422Z,48.15
2023-05-22T11:33:45.045Z,48.18
2023-05-22T11:34:45.070Z,48.17
2023-05-22T11:35:45.149Z,48.14
2023-05-22T11:36:45.144Z,48.15
2023-05-22T11:37:45.174Z,48.11
2023-05-22T11:38:45.206Z,48.15
2023-05-22T11:39:45.293Z,48.12
2023-05-22T11:40:45.290Z,48.11
2023-05-22T11:41:45.331Z,48.10
2023-05-22T11:42:45.394Z,48.09
2023-05-22T11:43:45.442Z,48.06
2023-05-22T11:44:45.445Z,48.07
2023-05-22T11:45:45.497Z,48.06
2023-05-22T11:46:45.714Z,48.03
2023-05-22T11:47:45.617Z,48.01
2023-05-22T11:48:45.706Z,48.02
2023-05-22T11:49:45.660Z,48.03
2023-05-22T11:50:46.020Z,47.98
2023-05-22T11:51:45.713Z,48.01
2023-05-22T11:52:45.744Z,47.99
2023-05-22T11:53:45.773Z,47.98
2023-05-22T11:54:45.801Z,47.99
2023-05-22T11:55:45.830Z,47.96
2023-05-22T11:56:45.851Z,47.97
2023-05-22T11:57:45.907Z,47.95
2023-05-22T11:58:45.961Z,47.94
2023-05-22T11:59:45.985Z,47.92
2023-05-22T12:00:46.048Z,47.94
2023-05-22T12:01:46.022Z,47.90
2023-05-22T12:02:46.129Z,47.87
2023-05-22T12:03:46.257Z,47.87
2023-05-22T12:04:46.177Z,47.84
2023-05-22T12:05:46.119Z,47.84
2023-05-22T12:06:46.176Z,47.79
2023-05-22T12:07:46.188Z,47.81
2023-05-22T12:08:46.197Z,47.81
2023-05-22T12:09:46.208Z,47.76
2023-05-22T12:10:46.222Z,47.79
2023-05-22T12:11:46.253Z,47.78
2023-05-22T12:12:46.239Z,47.74
2023-05-22T12:13:46.269Z,47.75
2023-05-22T12:14:46.278Z,47.73
2023-05-22T12:15:46.302Z,47.73
2023-05-22T12:16:46.405Z,47.72
2023-05-22T12:17:46.393Z,47.72
2023-05-22T12:18:46.475Z,47.64
2023-05-22T12:19:46.440Z,47.69
2023-05-22T12:20:46.586Z,47.62
2023-05-22T12:21:46.491Z,47.65
2023-05-22T12:22:46.519Z,47.66
2023-05-22T12:23:46.561Z,47.62
2023-05-22T12:24:46.578Z,47.60
2023-05-22T12:25:46.620Z,47.59
2023-05-22T12:26:46.656Z,47.58
2023-05-22T12:27:46.692Z,47.55
2023-05-22T12:28:46.712Z,47.53
2023-05-22T12:29:46.750Z,47.53
2023-05-22T12:30:46.832Z,47.54
2023-05-22T12:31:46.893Z,47.50
2023-05-22T12:32:46.900Z,47.51
2023-05-22T12:33:46.921Z,47.50
2023-05-22T12:34:47.005Z,47.48
2023-05-22T12:35:46.979Z,47.44
2023-05-22T12:36:47.138Z,47.44
2023-05-22T12:37:47.071Z,47.40
2023-05-22T12:38:47.099Z,47.40
2023-05-22T12:39:47.107Z,47.37
2023-05-22T12:40:47.128Z,47.35
2023-05-22T12:41:47.148Z,47.35
2023-05-22T12:42:47.190Z,47.34
2023-05-22T12:43:47.229Z,47.33
2023-05-22T12:44:47.240Z,47.32
2023-05-22T12:45:47.272Z,47.27
2023-05-22T12:46:47.406Z,47.27
2023-05-22T12:47:47.356Z,47.28
2023-05-22T12:48:47.364Z,47.25
2023-05-22T12:49:47.391Z,47.27
2023-05-22T12:50:47.402Z,47.22
2023-05-22T12:51:47.446Z,47.24
2023-05-22T12:52:47.565Z,47.21
2023-05-22T12:53:47.513Z,47.19